createdAt,value
2018-08-08T00:00:37.745Z,36.80
2018-08-08T00:03:06.034Z,36.90
2018-08-08T00:05:34.276Z,37.00
2018-08-08T00:08:02.581Z,37.10
2018-08-08T00:10:30.846Z,37.20
2018-08-08T00:12:59.168Z,37.30
2018-08-08T00:15:27.428Z,37.30
2018-08-08T00:17:55.702Z,37.40
2018-08-08T00:20:23.993Z,37.50
2018-08-08T00:22:52.250Z,37.60
2018-08-08T00:25:20.505Z,37.60
2018-08-08T00:27:48.782Z,37.60
2018-08-08T00:30:17.066Z,37.70
2018-08-08T00:32:45.897Z,37.80
2018-08-08T00:35:14.186Z,37.70
2018-08-08T00:37:42.430Z,37.80
2018-08-08T00:40:13.590Z,37.80
2018-08-08T00:42:42.500Z,37.90
2018-08-08T00:45:12.890Z,37.90
2018-08-08T00:47:42.122Z,38.10
2018-08-08T00:50:11.707Z,38.30
2018-08-08T00:52:40.606Z,38.30
2018-08-08T00:55:09.167Z,38.30
2018-08-08T00:57:37.704Z,38.40
2018-08-08T01:00:07.663Z,38.60
2018-08-08T01:02:36.479Z,38.70
2018-08-08T01:05:06.638Z,38.80
2018-08-08T01:07:34.988Z,38.80
2018-08-08T01:10:03.987Z,38.90
2018-08-08T01:12:32.486Z,38.20
2018-08-08T01:15:00.913Z,37.10
2018-08-08T01:17:29.195Z,36.90
2018-08-08T01:19:57.446Z,36.70
2018-08-08T01:22:25.813Z,36.50
2018-08-08T01:24:54.461Z,36.20
2018-08-08T01:27:22.690Z,35.80
2018-08-08T01:29:50.941Z,35.70
2018-08-08T01:32:19.208Z,35.90
2018-08-08T01:34:47.620Z,35.60
2018-08-08T01:37:15.871Z,35.60
2018-08-08T01:39:44.100Z,35.70
2018-08-08T01:42:12.359Z,35.80
2018-08-08T01:44:40.638Z,35.80
2018-08-08T01:47:08.938Z,35.80
2018-08-08T01:49:37.170Z,35.70
2018-08-08T01:52:05.629Z,35.70
2018-08-08T01:54:33.858Z,35.70
2018-08-08T01:57:02.099Z,35.70
2018-08-08T01:59:30.331Z,35.80
2018-08-08T02:01:58.541Z,35.80
2018-08-08T02:04:26.854Z,35.90
2018-08-08T02:06:55.097Z,35.90
2018-08-08T02:09:23.416Z,35.90
2018-08-08T02:11:51.634Z,36.00
2018-08-08T02:14:19.896Z,36.20
2018-08-08T02:16:48.115Z,36.20
2018-08-08T02:19:16.404Z,36.40
2018-08-08T02:21:44.645Z,36.50
2018-08-08T02:24:12.876Z,36.60
2018-08-08T02:26:41.093Z,36.80
2018-08-08T02:29:09.391Z,37.00
2018-08-08T02:31:37.654Z,37.20
2018-08-08T02:34:05.890Z,37.40
2018-08-08T02:36:34.103Z,37.60
2018-08-08T02:39:02.327Z,37.60
2018-08-08T02:41:30.547Z,37.60
2018-08-08T02:43:58.838Z,37.60
2018-08-08T02:46:27.113Z,37.70
2018-08-08T02:48:55.342Z,37.60
2018-08-08T02:51:23.603Z,37.80
2018-08-08T02:53:52.081Z,38.00
2018-08-08T02:56:20.291Z,38.10
2018-08-08T02:58:48.555Z,38.40
2018-08-08T03:01:16.869Z,38.60
2018-08-08T03:03:45.385Z,38.70
2018-08-08T03:06:13.723Z,38.70
2018-08-08T03:08:41.903Z,39.00
2018-08-08T03:11:10.146Z,39.20
2018-08-08T03:13:38.380Z,39.60
2018-08-08T03:16:06.660Z,39.90
2018-08-08T03:18:34.867Z,40.30
2018-08-08T03:21:03.094Z,40.40
2018-08-08T03:23:31.344Z,40.70
2018-08-08T03:25:59.537Z,40.80
2018-08-08T03:28:27.738Z,41.00
2018-08-08T03:30:56.022Z,41.30
2018-08-08T03:33:24.226Z,41.60
2018-08-08T03:35:52.436Z,41.90
2018-08-08T03:38:20.638Z,42.10
2018-08-08T03:40:48.867Z,42.20
2018-08-08T03:43:17.115Z,42.30
2018-08-08T03:45:45.352Z,42.30
2018-08-08T03:48:13.577Z,42.40
2018-08-08T03:50:41.794Z,42.40
2018-08-08T03:53:10.058Z,42.50
2018-08-08T03:55:38.213Z,43.70
2018-08-08T03:58:06.445Z,44.30
2018-08-08T04:00:34.718Z,45.00
2018-08-08T04:03:02.997Z,46.40
2018-08-08T04:05:31.285Z,47.10
2018-08-08T04:07:59.525Z,47.50
2018-08-08T04:10:27.925Z,47.60
2018-08-08T04:12:56.186Z,47.60
2018-08-08T04:15:24.451Z,47.50
2018-08-08T04:17:52.707Z,47.60
2018-08-08T04:20:20.933Z,47.70
2018-08-08T04:22:49.177Z,47.90
2018-08-08T04:25:17.399Z,48.10
2018-08-08T04:27:45.622Z,48.40
2018-08-08T04:30:17.513Z,48.50
2018-08-08T04:32:45.809Z,48.60
2018-08-08T04:35:14.099Z,50.00
2018-08-08T04:37:42.390Z,51.60
2018-08-08T04:40:16.973Z,53.00
2018-08-08T04:42:47.013Z,54.60
2018-08-08T04:45:15.860Z,56.30
2018-08-08T04:47:44.470Z,58.10
2018-08-08T04:50:12.866Z,59.90
2018-08-08T04:52:41.522Z,61.30
2018-08-08T04:55:11.659Z,62.80
2018-08-08T04:57:40.725Z,64.30
2018-08-08T05:00:11.912Z,65.20
2018-08-08T05:02:40.130Z,66.40
2018-08-08T05:05:08.375Z,67.00
2018-08-08T05:07:37.020Z,67.50
2018-08-08T05:10:06.104Z,68.50
2018-08-08T05:12:34.458Z,69.70
2018-08-08T05:15:02.772Z,69.70
2018-08-08T05:17:31.046Z,70.40
2018-08-08T05:19:59.393Z,70.90
2018-08-08T05:22:27.722Z,70.40
2018-08-08T05:24:56.067Z,72.10
2018-08-08T05:27:24.341Z,73.90
2018-08-08T05:29:52.635Z,75.30
2018-08-08T05:32:27.341Z,75.60
2018-08-08T05:34:55.603Z,75.20
2018-08-08T05:37:23.970Z,75.10
2018-08-08T05:39:52.200Z,74.70
2018-08-08T05:42:20.561Z,73.50
2018-08-08T05:44:48.825Z,72.50
2018-08-08T05:47:17.100Z,71.80
2018-08-08T05:49:45.451Z,70.90
2018-08-08T05:52:13.737Z,70.10
2018-08-08T05:54:42.038Z,69.70
2018-08-08T05:57:10.484Z,69.20
2018-08-08T05:59:38.972Z,69.00
2018-08-08T06:02:07.276Z,68.50
2018-08-08T06:04:35.556Z,68.00
2018-08-08T06:07:04.006Z,67.50
2018-08-08T06:09:32.481Z,67.70
2018-08-08T06:12:00.832Z,67.80
2018-08-08T06:14:29.319Z,67.30
2018-08-08T06:16:57.547Z,69.00
2018-08-08T06:19:26.005Z,68.70
2018-08-08T06:21:54.243Z,67.60
2018-08-08T06:24:22.575Z,66.60
2018-08-08T06:26:50.811Z,66.90
2018-08-08T06:29:19.176Z,67.50
2018-08-08T06:31:47.684Z,68.80
2018-08-08T06:34:15.946Z,69.80
2018-08-08T06:36:44.158Z,70.50
2018-08-08T06:39:14.152Z,69.90
2018-08-08T06:41:43.083Z,70.10
2018-08-08T06:44:11.468Z,69.70
2018-08-08T06:46:39.730Z,69.30
2018-08-08T06:49:07.993Z,68.70
2018-08-08T06:51:36.235Z,67.80
2018-08-08T06:54:04.800Z,66.10
2018-08-08T06:56:33.039Z,64.40
2018-08-08T06:59:01.294Z,63.20
2018-08-08T07:01:30.665Z,61.50
2018-08-08T07:03:59.055Z,60.90
2018-08-08T07:06:27.298Z,62.10
2018-08-08T07:08:55.857Z,63.30
2018-08-08T07:11:24.068Z,63.60
2018-08-08T07:13:52.439Z,63.90
2018-08-08T07:16:20.678Z,64.10
2018-08-08T07:18:48.957Z,63.60
2018-08-08T07:21:17.165Z,63.60
2018-08-08T07:23:45.675Z,63.50
2018-08-08T07:26:13.947Z,62.80
2018-08-08T07:28:42.205Z,62.30
2018-08-08T07:31:10.466Z,61.90
2018-08-08T07:33:38.747Z,61.80
2018-08-08T07:36:07.042Z,61.10
2018-08-08T07:38:35.390Z,60.20
2018-08-08T07:41:03.923Z,59.90
2018-08-08T07:43:32.560Z,59.30
2018-08-08T07:46:00.795Z,58.80
2018-08-08T07:48:29.030Z,58.50
2018-08-08T07:50:57.250Z,57.20
2018-08-08T07:53:25.504Z,57.30
2018-08-08T07:55:53.874Z,56.70
2018-08-08T07:58:22.226Z,55.70
2018-08-08T08:00:50.381Z,55.50
2018-08-08T08:03:18.610Z,55.00
2018-08-08T08:05:46.839Z,55.10
2018-08-08T08:08:15.106Z,55.30
2018-08-08T08:10:43.361Z,56.00
2018-08-08T08:13:11.591Z,56.30
2018-08-08T08:15:39.832Z,56.30
2018-08-08T08:18:08.237Z,56.40
2018-08-08T08:20:36.475Z,56.30
2018-08-08T08:23:04.734Z,54.80
2018-08-08T08:25:32.949Z,52.30
2018-08-08T08:28:01.171Z,49.30
2018-08-08T08:30:29.398Z,45.10
2018-08-08T08:32:57.862Z,43.90
2018-08-08T08:35:26.081Z,41.70
2018-08-08T08:37:54.404Z,39.30
2018-08-08T08:40:22.737Z,37.20
2018-08-08T08:42:51.052Z,35.80
2018-08-08T08:45:19.274Z,34.50
2018-08-08T08:47:47.598Z,33.70
2018-08-08T08:50:15.875Z,33.00
2018-08-08T08:52:44.103Z,32.20
2018-08-08T08:55:12.378Z,31.90
2018-08-08T08:57:40.623Z,31.90
2018-08-08T09:00:11.874Z,32.30
2018-08-08T09:02:40.380Z,33.30
2018-08-08T09:05:09.577Z,34.90
2018-08-08T09:07:38.166Z,36.40
2018-08-08T09:10:07.481Z,37.70
2018-08-08T09:12:35.749Z,39.50
2018-08-08T09:15:05.080Z,40.50
2018-08-08T09:17:33.277Z,41.90
2018-08-08T09:20:01.863Z,43.80
2018-08-08T09:22:30.164Z,44.30
2018-08-08T09:24:58.522Z,44.90
2018-08-08T09:27:26.754Z,45.40
2018-08-08T09:30:00.158Z,46.30
2018-08-08T09:32:28.553Z,46.60
2018-08-08T09:34:56.889Z,46.90
2018-08-08T09:37:25.138Z,47.00
2018-08-08T09:39:53.415Z,46.60
2018-08-08T09:42:21.758Z,46.40
2018-08-08T09:44:49.987Z,46.20
2018-08-08T09:47:18.284Z,45.70
2018-08-08T09:49:46.589Z,45.30
2018-08-08T09:52:14.791Z,45.70
2018-08-08T09:54:43.218Z,45.80
2018-08-08T09:57:11.586Z,46.50
2018-08-08T09:59:39.982Z,47.10
2018-08-08T10:02:13.592Z,47.60
2018-08-08T10:04:41.863Z,48.50
2018-08-08T10:07:10.050Z,49.00
2018-08-08T10:09:38.274Z,48.30
2018-08-08T10:12:06.543Z,48.80
2018-08-08T10:14:34.750Z,49.00
2018-08-08T10:17:03.017Z,48.80
2018-08-08T10:19:31.322Z,47.80
2018-08-08T10:21:59.549Z,47.60
2018-08-08T10:24:27.777Z,47.20
2018-08-08T10:26:56.155Z,46.80
2018-08-08T10:29:24.346Z,46.80
2018-08-08T10:31:52.623Z,46.70
2018-08-08T10:34:20.841Z,47.00
2018-08-08T10:36:49.053Z,47.00
2018-08-08T10:39:17.302Z,46.80
2018-08-08T10:41:45.610Z,46.80
2018-08-08T10:44:14.833Z,45.40
2018-08-08T10:46:43.108Z,45.10
2018-08-08T10:49:11.340Z,45.20
2018-08-08T10:51:39.533Z,45.10
2018-08-08T10:54:07.755Z,45.20
2018-08-08T10:56:35.967Z,45.60
2018-08-08T10:59:04.207Z,46.00
2018-08-08T11:01:32.417Z,46.30
2018-08-08T11:04:01.250Z,46.30
2018-08-08T11:06:29.522Z,46.60
2018-08-08T11:08:57.760Z,47.00
2018-08-08T11:11:26.718Z,47.40
2018-08-08T11:13:54.955Z,48.10
2018-08-08T11:16:23.632Z,48.60
2018-08-08T11:18:51.922Z,49.00
2018-08-08T11:21:20.121Z,49.10
2018-08-08T11:23:48.431Z,49.40
2018-08-08T11:26:16.630Z,50.00
2018-08-08T11:28:44.901Z,50.60
2018-08-08T11:31:13.311Z,50.70
2018-08-08T11:33:42.224Z,50.60
2018-08-08T11:36:10.494Z,50.60
2018-08-08T11:38:38.752Z,50.80
2018-08-08T11:41:07.013Z,50.20
2018-08-08T11:43:35.287Z,49.90
2018-08-08T11:46:03.539Z,49.50
2018-08-08T11:48:31.814Z,49.40
2018-08-08T11:51:00.060Z,49.20
2018-08-08T11:53:28.339Z,48.00
2018-08-08T11:55:56.545Z,47.10
2018-08-08T11:58:24.790Z,46.30
2018-08-08T12:00:53.016Z,46.30
2018-08-08T12:03:21.249Z,46.80
2018-08-08T12:05:49.469Z,47.00
2018-08-08T12:08:17.699Z,46.60
2018-08-08T12:10:46.289Z,46.70
2018-08-08T12:13:14.598Z,46.70
2018-08-08T12:15:42.867Z,47.40
2018-08-08T12:18:11.183Z,47.30
2018-08-08T12:20:40.422Z,47.30
2018-08-08T12:23:08.669Z,47.30
2018-08-08T12:25:36.890Z,46.60
2018-08-08T12:28:05.350Z,47.20
2018-08-08T12:30:33.586Z,46.90
2018-08-08T12:33:01.822Z,46.80
2018-08-08T12:35:30.255Z,46.90
2018-08-08T12:37:58.487Z,47.20
2018-08-08T12:40:26.817Z,46.20
2018-08-08T12:42:56.064Z,46.00
2018-08-08T12:45:24.378Z,45.50
2018-08-08T12:47:52.752Z,45.10
2018-08-08T12:50:20.964Z,45.70
2018-08-08T12:52:49.335Z,45.60
2018-08-08T12:55:17.572Z,45.90
2018-08-08T12:57:45.926Z,45.70
2018-08-08T13:00:14.227Z,44.50
2018-08-08T13:02:42.577Z,44.80
2018-08-08T13:05:10.901Z,45.60
2018-08-08T13:07:39.219Z,45.90
2018-08-08T13:10:07.869Z,46.40
2018-08-08T13:12:36.123Z,45.90
2018-08-08T13:15:05.623Z,45.50
2018-08-08T13:17:33.909Z,44.90
2018-08-08T13:20:02.183Z,45.30
2018-08-08T13:22:30.411Z,45.40
2018-08-08T13:24:59.058Z,44.80
2018-08-08T13:27:27.385Z,43.70
2018-08-08T13:29:55.621Z,43.70
2018-08-08T13:32:23.945Z,43.50
2018-08-08T13:34:52.238Z,43.30
2018-08-08T13:40:06.837Z,44.10
2018-08-08T13:42:35.104Z,45.30
2018-08-08T13:45:03.359Z,45.60
2018-08-08T13:47:31.679Z,46.10
2018-08-08T13:49:59.966Z,45.80
2018-08-08T13:52:28.230Z,46.10
2018-08-08T13:54:56.561Z,46.20
2018-08-08T13:57:24.846Z,46.50
2018-08-08T13:59:53.054Z,47.30
2018-08-08T14:02:21.306Z,46.90
2018-08-08T14:04:49.587Z,47.00
2018-08-08T14:07:17.825Z,46.80
2018-08-08T14:09:46.072Z,46.60
2018-08-08T14:12:14.326Z,47.90
2018-08-08T14:14:42.736Z,47.50
2018-08-08T14:17:11.011Z,47.20
2018-08-08T14:19:39.581Z,46.60
2018-08-08T14:22:08.090Z,46.90
2018-08-08T14:24:36.508Z,46.50
2018-08-08T14:27:05.350Z,46.90
2018-08-08T14:29:33.491Z,46.80
2018-08-08T14:32:01.787Z,46.70
2018-08-08T14:34:30.159Z,46.50
2018-08-08T14:36:58.411Z,46.50
2018-08-08T14:39:26.696Z,46.90
2018-08-08T14:41:54.961Z,46.70
2018-08-08T14:44:23.406Z,46.60
2018-08-08T14:46:51.713Z,46.50
2018-08-08T14:49:20.382Z,46.90
2018-08-08T14:51:48.862Z,47.40
2018-08-08T14:54:17.119Z,47.70
2018-08-08T14:56:45.720Z,47.40
2018-08-08T14:59:13.987Z,47.80
2018-08-08T15:01:42.243Z,47.90
2018-08-08T15:04:10.590Z,47.80
2018-08-08T15:06:39.587Z,47.60
2018-08-08T15:09:10.007Z,47.30
2018-08-08T15:11:38.234Z,47.00
2018-08-08T15:14:06.542Z,46.70
2018-08-08T15:16:35.206Z,47.00
2018-08-08T15:19:03.467Z,47.50
2018-08-08T15:21:31.746Z,47.80
2018-08-08T15:24:00.013Z,48.20
2018-08-08T15:26:28.286Z,47.90
2018-08-08T15:28:56.518Z,48.00
2018-08-08T15:31:24.892Z,47.90
2018-08-08T15:33:53.262Z,48.00
2018-08-08T15:36:21.601Z,48.40
2018-08-08T15:38:49.872Z,48.50
2018-08-08T15:41:18.242Z,48.50
2018-08-08T15:43:46.563Z,48.50
2018-08-08T15:46:14.885Z,47.90
2018-08-08T15:48:43.146Z,48.70
2018-08-08T15:51:11.497Z,48.20
2018-08-08T15:53:39.718Z,48.70
2018-08-08T15:56:08.048Z,48.30
2018-08-08T15:58:36.319Z,48.10
2018-08-08T16:01:04.600Z,48.40
2018-08-08T16:03:32.869Z,48.20
2018-08-08T16:06:01.097Z,47.40
2018-08-08T16:08:29.358Z,47.70
2018-08-08T16:10:57.817Z,48.00
2018-08-08T16:13:26.086Z,47.70
2018-08-08T16:15:54.335Z,47.80
2018-08-08T16:18:22.581Z,48.00
2018-08-08T16:20:50.927Z,47.10
2018-08-08T16:23:19.228Z,47.00
2018-08-08T16:25:47.434Z,46.40
2018-08-08T16:28:15.687Z,46.00
2018-08-08T16:30:44.004Z,46.00
2018-08-08T16:33:12.230Z,45.80
2018-08-08T16:35:40.446Z,45.40
2018-08-08T16:38:08.912Z,44.80
2018-08-08T16:40:37.248Z,45.20
2018-08-08T16:43:05.503Z,45.40
2018-08-08T16:45:33.739Z,45.30
2018-08-08T16:48:02.074Z,45.30
2018-08-08T16:50:30.332Z,45.50
2018-08-08T16:52:58.838Z,45.70
2018-08-08T16:55:27.157Z,45.40
2018-08-08T16:57:55.403Z,45.00
2018-08-08T17:00:23.710Z,45.00
2018-08-08T17:02:51.918Z,44.90
2018-08-08T17:05:20.173Z,45.10
2018-08-08T17:07:48.539Z,45.40
2018-08-08T17:10:16.754Z,45.20
2018-08-08T17:12:45.063Z,44.80
2018-08-08T17:15:13.283Z,44.60
2018-08-08T17:17:41.543Z,44.50
2018-08-08T17:20:09.925Z,44.80
2018-08-08T17:22:38.211Z,45.00
2018-08-08T17:25:07.080Z,44.70
2018-08-08T17:27:35.556Z,44.90
2018-08-08T17:30:04.738Z,45.30
2018-08-08T17:32:33.489Z,44.90
2018-08-08T17:35:01.804Z,44.90
2018-08-08T17:37:30.144Z,44.70
2018-08-08T17:39:59.241Z,44.70
2018-08-08T17:42:27.594Z,44.70
2018-08-08T17:44:55.935Z,44.50
2018-08-08T17:47:24.209Z,44.40
2018-08-08T17:49:52.567Z,44.70
2018-08-08T17:52:20.822Z,44.80
2018-08-08T17:54:49.091Z,44.80
2018-08-08T17:57:17.390Z,45.00
2018-08-08T17:59:45.658Z,45.00
2018-08-08T18:02:14.214Z,45.10
2018-08-08T18:04:42.898Z,45.00
2018-08-08T18:07:11.186Z,44.90
2018-08-08T18:09:39.635Z,44.70
2018-08-08T18:12:08.231Z,44.80
2018-08-08T18:14:36.525Z,44.80
2018-08-08T18:17:04.806Z,45.20
2018-08-08T18:19:33.055Z,45.10
2018-08-08T18:22:01.371Z,45.00
2018-08-08T18:24:29.656Z,44.00
2018-08-08T18:26:57.930Z,45.10
2018-08-08T18:29:26.362Z,45.30
2018-08-08T18:31:54.702Z,45.20
2018-08-08T18:34:23.003Z,45.30
2018-08-08T18:36:51.297Z,45.40
2018-08-08T18:39:19.668Z,45.90
2018-08-08T18:41:47.906Z,45.90
2018-08-08T18:44:16.496Z,46.00
2018-08-08T18:46:44.793Z,46.20
2018-08-08T18:49:13.150Z,46.20
2018-08-08T18:51:41.461Z,46.20
2018-08-08T18:54:09.914Z,46.30
2018-08-08T18:56:38.367Z,47.00
2018-08-08T18:59:06.595Z,46.60
2018-08-08T19:01:34.922Z,46.50
2018-08-08T19:04:03.226Z,46.70
2018-08-08T19:06:31.492Z,46.60
2018-08-08T19:08:59.764Z,46.70
2018-08-08T19:11:28.066Z,46.70
2018-08-08T19:13:56.337Z,46.50
2018-08-08T19:16:24.634Z,46.20
2018-08-08T19:18:52.870Z,46.10
2018-08-08T19:21:21.128Z,46.40
2018-08-08T19:23:49.527Z,46.40
2018-08-08T19:26:17.801Z,46.10
2018-08-08T19:28:46.085Z,46.40
2018-08-08T19:31:14.351Z,46.30
2018-08-08T19:33:42.667Z,46.60
2018-08-08T19:36:10.982Z,46.70
2018-08-08T19:38:39.460Z,46.80
2018-08-08T19:41:08.298Z,47.00
2018-08-08T19:43:36.594Z,47.20
2018-08-08T19:46:05.019Z,47.20
2018-08-08T19:48:33.283Z,47.20
2018-08-08T19:51:01.703Z,47.30
2018-08-08T19:53:30.690Z,47.40
2018-08-08T19:55:58.931Z,47.40
2018-08-08T19:58:33.941Z,47.50
2018-08-08T20:01:02.450Z,48.10
2018-08-08T20:03:30.938Z,47.50
2018-08-08T20:05:59.481Z,47.40
2018-08-08T20:08:28.627Z,47.40
2018-08-08T20:10:57.902Z,47.30
2018-08-08T20:13:26.183Z,47.30
2018-08-08T20:15:55.862Z,47.10
2018-08-08T20:18:24.670Z,47.00
2018-08-08T20:20:53.455Z,47.00
2018-08-08T20:23:22.394Z,47.10
2018-08-08T20:25:50.645Z,47.00
2018-08-08T20:28:20.155Z,47.00
2018-08-08T20:30:49.410Z,47.10
2018-08-08T20:33:18.647Z,47.20
2018-08-08T20:35:48.297Z,47.30
2018-08-08T20:38:16.605Z,47.30
2018-08-08T20:40:44.842Z,47.60
2018-08-08T20:43:13.937Z,47.40
2018-08-08T20:45:42.850Z,48.30
2018-08-08T20:48:11.206Z,47.80
2018-08-08T20:50:39.730Z,47.90
2018-08-08T20:53:08.057Z,47.90
2018-08-08T20:55:36.409Z,48.00
2018-08-08T20:58:05.058Z,47.90
2018-08-08T21:00:33.508Z,47.70
2018-08-08T21:03:01.832Z,47.70
2018-08-08T21:05:30.502Z,47.80
2018-08-08T21:07:59.068Z,47.60
2018-08-08T21:10:27.339Z,47.70
2018-08-08T21:12:56.358Z,47.70
2018-08-08T21:15:25.163Z,47.50
2018-08-08T21:17:53.471Z,47.70
2018-08-08T21:20:21.710Z,47.80
2018-08-08T21:22:50.230Z,48.00
2018-08-08T21:25:18.561Z,48.10
2018-08-08T21:27:46.947Z,48.10
2018-08-08T21:30:15.577Z,47.80
2018-08-08T21:32:44.315Z,47.90
2018-08-08T21:35:12.773Z,48.00
2018-08-08T21:37:41.110Z,47.90
2018-08-08T21:40:09.691Z,48.10
2018-08-08T21:42:38.388Z,48.10
2018-08-08T21:45:06.993Z,48.10
2018-08-08T21:47:35.314Z,48.10
2018-08-08T21:50:05.238Z,48.50
2018-08-08T21:52:33.541Z,48.30
2018-08-08T21:55:13.676Z,48.40
2018-08-08T21:57:53.894Z,48.40
2018-08-08T22:00:33.544Z,48.60
2018-08-08T22:03:13.411Z,49.10
2018-08-08T22:05:53.310Z,48.60
2018-08-08T22:08:32.950Z,49.10
2018-08-08T22:11:14.690Z,49.20
2018-08-08T22:13:54.691Z,49.10
2018-08-08T22:16:34.521Z,49.20
2018-08-08T22:19:36.465Z,49.20
2018-08-08T22:22:05.924Z,48.90
2018-08-08T22:24:34.677Z,49.10
2018-08-08T22:27:03.388Z,48.90
2018-08-08T22:29:31.720Z,49.30
2018-08-08T22:32:00.113Z,49.10
2018-08-08T22:34:28.350Z,49.10
2018-08-08T22:36:56.710Z,49.10
2018-08-08T22:39:24.974Z,49.10
2018-08-08T22:41:53.915Z,48.90
2018-08-08T22:44:22.215Z,48.80
2018-08-08T22:46:50.713Z,48.80
2018-08-08T22:49:18.969Z,48.80
2018-08-08T22:51:47.254Z,48.70
2018-08-08T22:54:15.914Z,48.70
2018-08-08T22:56:44.286Z,48.70
2018-08-08T22:59:12.582Z,49.40
2018-08-08T23:01:40.802Z,48.60
2018-08-08T23:04:09.106Z,48.50
2018-08-08T23:06:37.396Z,48.80
2018-08-08T23:09:08.665Z,49.00
2018-08-08T23:11:36.899Z,49.10
2018-08-08T23:14:05.627Z,49.10
2018-08-08T23:16:34.029Z,49.10
2018-08-08T23:19:02.424Z,49.10
2018-08-08T23:21:31.579Z,49.20
2018-08-08T23:23:59.982Z,49.30
2018-08-08T23:26:28.353Z,49.40
2018-08-08T23:28:57.224Z,49.60
2018-08-08T23:31:25.414Z,49.60
2018-08-08T23:33:53.622Z,49.60
2018-08-08T23:36:21.846Z,49.80
2018-08-08T23:38:50.112Z,50.00
2018-08-08T23:41:18.413Z,50.10
2018-08-08T23:43:47.226Z,50.30
2018-08-08T23:46:15.735Z,50.40
2018-08-08T23:48:44.030Z,49.90
2018-08-08T23:51:12.287Z,50.00
2018-08-08T23:53:40.646Z,50.10
2018-08-08T23:56:10.619Z,50.20
2018-08-08T23:58:38.872Z,50.10
